sensor_id;sensor_type;location;lat;lon;timestamp;temperature;humidity
75190;HTU21D;69198;44.694;37.790;2023-04-24T00:00:20;12.35;71.32
75190;HTU21D;69198;44.694;37.790;2023-04-24T00:01:21;12.35;71.16
75190;HTU21D;69198;44.694;37.790;2023-04-24T00:02:22;12.34;71.03
75190;HTU21D;69198;44.694;37.790;2023-04-24T00:03:23;12.36;70.74
75190;HTU21D;69198;44.694;37.790;2023-04-24T00:04:24;12.36;70.40
75190;HTU21D;69198;44.694;37.790;2023-04-24T00:05:26;12.37;70.27
75190;HTU21D;69198;44.694;37.790;2023-04-24T00:06:28;12.36;70.09
75190;HTU21D;69198;44.694;37.790;2023-04-24T00:07:34;12.33;69.97
75190;HTU21D;69198;44.694;37.790;2023-04-24T00:08:36;12.29;70.08
75190;HTU21D;69198;44.694;37.790;2023-04-24T00:09:37;12.26;70.00
75190;HTU21D;69198;44.694;37.790;2023-04-24T00:10:38;12.23;69.87
75190;HTU21D;69198;44.694;37.790;2023-04-24T00:11:39;12.25;69.72
75190;HTU21D;69198;44.694;37.790;2023-04-24T00:12:40;12.19;69.80
75190;HTU21D;69198;44.694;37.790;2023-04-24T00:13:42;12.21;69.48
75190;HTU21D;69198;44.694;37.790;2023-04-24T00:14:43;12.25;69.04
75190;HTU21D;69198;44.694;37.790;2023-04-24T00:15:44;12.26;69.08
75190;HTU21D;69198;44.694;37.790;2023-04-24T00:16:45;12.23;69.36
75190;HTU21D;69198;44.694;37.790;2023-04-24T00:17:46;12.22;69.49
75190;HTU21D;69198;44.694;37.790;2023-04-24T00:18:47;12.19;69.65
75190;HTU21D;69198;44.694;37.790;2023-04-24T00:19:49;12.16;69.86
75190;HTU21D;69198;44.694;37.790;2023-04-24T00:20:51;12.11;70.11
75190;HTU21D;69198;44.694;37.790;2023-04-24T00:21:52;12.06;70.29
75190;HTU21D;69198;44.694;37.790;2023-04-24T00:22:54;12.04;70.48
75190;HTU21D;69198;44.694;37.790;2023-04-24T00:23:55;12.04;70.52
75190;HTU21D;69198;44.694;37.790;2023-04-24T00:24:56;12.02;70.64
75190;HTU21D;69198;44.694;37.790;2023-04-24T00:25:57;12.02;70.74
75190;HTU21D;69198;44.694;37.790;2023-04-24T00:26:58;12.02;70.83
75190;HTU21D;69198;44.694;37.790;2023-04-24T00:28:01;12.01;70.93
75190;HTU21D;69198;44.694;37.790;2023-04-24T00:29:02;12.01;71.06
75190;HTU21D;69198;44.694;37.790;2023-04-24T00:30:04;11.98;71.24
75190;HTU21D;69198;44.694;37.790;2023-04-24T00:31:05;11.98;71.31
75190;HTU21D;69198;44.694;37.790;2023-04-24T00:32:06;11.97;71.44
75190;HTU21D;69198;44.694;37.790;2023-04-24T00:33:08;11.93;71.61
75190;HTU21D;69198;44.694;37.790;2023-04-24T00:34:09;11.91;71.71
75190;HTU21D;69198;44.694;37.790;2023-04-24T00:35:12;11.92;71.76
75190;HTU21D;69198;44.694;37.790;2023-04-24T00:36:13;11.94;71.84
75190;HTU21D;69198;44.694;37.790;2023-04-24T00:37:14;11.93;71.93
75190;HTU21D;69198;44.694;37.790;2023-04-24T00:38:18;11.92;71.97
75190;HTU21D;69198;44.694;37.790;2023-04-24T00:39:19;11.97;71.91
75190;HTU21D;69198;44.694;37.790;2023-04-24T00:40:21;11.96;71.96
75190;HTU21D;69198;44.694;37.790;2023-04-24T00:41:21;11.96;71.99
75190;HTU21D;69198;44.694;37.790;2023-04-24T00:42:23;11.96;71.98
75190;HTU21D;69198;44.694;37.790;2023-04-24T00:43:24;11.96;72.07
75190;HTU21D;69198;44.694;37.790;2023-04-24T00:44:25;11.93;72.12
75190;HTU21D;69198;44.694;37.790;2023-04-24T00:45:26;11.98;72.06
75190;HTU21D;69198;44.694;37.790;2023-04-24T00:46:28;11.99;72.03
75190;HTU21D;69198;44.694;37.790;2023-04-24T00:47:29;11.96;72.11
75190;HTU21D;69198;44.694;37.790;2023-04-24T00:48:31;11.94;72.15
75190;HTU21D;69198;44.694;37.790;2023-04-24T00:49:32;11.93;72.17
75190;HTU21D;69198;44.694;37.790;2023-04-24T00:50:35;11.96;72.17
75190;HTU21D;69198;44.694;37.790;2023-04-24T00:51:36;12.00;72.05
75190;HTU21D;69198;44.694;37.790;2023-04-24T00:52:38;12.01;72.00
75190;HTU21D;69198;44.694;37.790;2023-04-24T00:53:41;12.02;71.96
75190;HTU21D;69198;44.694;37.790;2023-04-24T00:54:42;12.02;71.96
75190;HTU21D;69198;44.694;37.790;2023-04-24T00:55:43;12.00;72.03
75190;HTU21D;69198;44.694;37.790;2023-04-24T00:56:44;12.03;71.90
75190;HTU21D;69198;44.694;37.790;2023-04-24T00:57:46;12.03;71.87
75190;HTU21D;69198;44.694;37.790;2023-04-24T00:58:47;12.06;71.71
75190;HTU21D;69198;44.694;37.790;2023-04-24T00:59:48;12.08;71.67
75190;HTU21D;69198;44.694;37.790;2023-04-24T01:00:50;12.14;71.47
75190;HTU21D;69198;44.694;37.790;2023-04-24T01:01:53;12.15;71.47
75190;HTU21D;69198;44.694;37.790;2023-04-24T01:02:55;12.15;71.40
75190;HTU21D;69198;44.694;37.790;2023-04-24T01:03:57;12.17;71.32
75190;HTU21D;69198;44.694;37.790;2023-04-24T01:04:58;12.17;71.32
75190;HTU21D;69198;44.694;37.790;2023-04-24T01:06:00;12.18;71.28
75190;HTU21D;69198;44.694;37.790;2023-04-24T01:07:01;12.20;71.16
75190;HTU21D;69198;44.694;37.790;2023-04-24T01:08:03;12.19;71.25
75190;HTU21D;69198;44.694;37.790;2023-04-24T01:09:04;12.19;71.29
75190;HTU21D;69198;44.694;37.790;2023-04-24T01:10:06;12.17;71.27
75190;HTU21D;69198;44.694;37.790;2023-04-24T01:11:08;12.16;71.34
75190;HTU21D;69198;44.694;37.790;2023-04-24T01:12:09;12.13;71.46
75190;HTU21D;69198;44.694;37.790;2023-04-24T01:13:11;12.10;71.55
75190;HTU21D;69198;44.694;37.790;2023-04-24T01:14:13;12.13;71.47
75190;HTU21D;69198;44.694;37.790;2023-04-24T01:15:15;12.14;71.42
75190;HTU21D;69198;44.694;37.790;2023-04-24T01:16:17;12.17;71.30
75190;HTU21D;69198;44.694;37.790;2023-04-24T01:17:20;12.15;71.30
75190;HTU21D;69198;44.694;37.790;2023-04-24T01:18:22;12.15;71.33
75190;HTU21D;69198;44.694;37.790;2023-04-24T01:19:24;12.13;71.48
75190;HTU21D;69198;44.694;37.790;2023-04-24T01:20:25;12.12;71.47
75190;HTU21D;69198;44.694;37.790;2023-04-24T01:21:27;12.12;71.48
75190;HTU21D;69198;44.694;37.790;2023-04-24T01:22:33;12.14;71.44
75190;HTU21D;69198;44.694;37.790;2023-04-24T01:23:35;12.18;71.25
75190;HTU21D;69198;44.694;37.790;2023-04-24T01:24:36;12.16;71.28
75190;HTU21D;69198;44.694;37.790;2023-04-24T01:25:39;12.16;71.26
75190;HTU21D;69198;44.694;37.790;2023-04-24T01:26:40;12.15;71.27
75190;HTU21D;69198;44.694;37.790;2023-04-24T01:27:41;12.16;71.16
75190;HTU21D;69198;44.694;37.790;2023-04-24T01:28:42;12.15;71.14
75190;HTU21D;69198;44.694;37.790;2023-04-24T01:29:43;12.19;71.03
75190;HTU21D;69198;44.694;37.790;2023-04-24T01:30:45;12.20;70.94
75190;HTU21D;69198;44.694;37.790;2023-04-24T01:31:46;12.23;70.87
75190;HTU21D;69198;44.694;37.790;2023-04-24T01:32:48;12.25;70.75
75190;HTU21D;69198;44.694;37.790;2023-04-24T01:33:50;12.23;70.77
75190;HTU21D;69198;44.694;37.790;2023-04-24T01:34:51;12.29;70.62
75190;HTU21D;69198;44.694;37.790;2023-04-24T01:35:53;12.30;70.52
75190;HTU21D;69198;44.694;37.790;2023-04-24T01:36:54;12.32;70.40
75190;HTU21D;69198;44.694;37.790;2023-04-24T01:37:57;12.31;70.50
75190;HTU21D;69198;44.694;37.790;2023-04-24T01:38:59;12.30;70.53
75190;HTU21D;69198;44.694;37.790;2023-04-24T01:40:00;12.33;70.46
75190;HTU21D;69198;44.694;37.790;2023-04-24T01:41:01;12.38;70.11
75190;HTU21D;69198;44.694;37.790;2023-04-24T01:42:04;12.38;70.07
75190;HTU21D;69198;44.694;37.790;2023-04-24T01:43:05;12.41;70.00
75190;HTU21D;69198;44.694;37.790;2023-04-24T01:44:07;12.46;69.97
75190;HTU21D;69198;44.694;37.790;2023-04-24T01:45:11;12.50;69.68
75190;HTU21D;69198;44.694;37.790;2023-04-24T01:46:13;12.52;69.50
75190;HTU21D;69198;44.694;37.790;2023-04-24T01:47:14;12.51;69.58
75190;HTU21D;69198;44.694;37.790;2023-04-24T01:48:16;12.52;69.59
75190;HTU21D;69198;44.694;37.790;2023-04-24T01:49:16;12.56;69.55
75190;HTU21D;69198;44.694;37.790;2023-04-24T01:50:19;12.57;69.61
75190;HTU21D;69198;44.694;37.790;2023-04-24T01:51:20;12.58;69.67
75190;HTU21D;69198;44.694;37.790;2023-04-24T01:52:21;12.60;69.57
75190;HTU21D;69198;44.694;37.790;2023-04-24T01:53:22;12.60;69.54
75190;HTU21D;69198;44.694;37.790;2023-04-24T01:54:23;12.60;69.55
75190;HTU21D;69198;44.694;37.790;2023-04-24T01:55:24;12.61;69.57
75190;HTU21D;69198;44.694;37.790;2023-04-24T01:56:25;12.59;69.63
75190;HTU21D;69198;44.694;37.790;2023-04-24T01:57:30;12.59;69.61
75190;HTU21D;69198;44.694;37.790;2023-04-24T01:58:31;12.56;69.72
75190;HTU21D;69198;44.694;37.790;2023-04-24T01:59:33;12.56;69.80
75190;HTU21D;69198;44.694;37.790;2023-04-24T02:00:35;12.58;69.87
75190;HTU21D;69198;44.694;37.790;2023-04-24T02:01:37;12.58;69.93
75190;HTU21D;69198;44.694;37.790;2023-04-24T02:02:41;12.56;69.98
75190;HTU21D;69198;44.694;37.790;2023-04-24T02:03:43;12.56;69.97
75190;HTU21D;69198;44.694;37.790;2023-04-24T02:04:44;12.57;70.01
75190;HTU21D;69198;44.694;37.790;2023-04-24T02:05:45;12.60;69.96
75190;HTU21D;69198;44.694;37.790;2023-04-24T02:06:45;12.63;69.99
75190;HTU21D;69198;44.694;37.790;2023-04-24T02:07:46;12.65;70.04
75190;HTU21D;69198;44.694;37.790;2023-04-24T02:08:47;12.67;70.03
75190;HTU21D;69198;44.694;37.790;2023-04-24T02:09:48;12.65;70.07
75190;HTU21D;69198;44.694;37.790;2023-04-24T02:10:50;12.64;70.08
75190;HTU21D;69198;44.694;37.790;2023-04-24T02:11:51;12.65;70.16
75190;HTU21D;69198;44.694;37.790;2023-04-24T02:12:52;12.62;70.18
75190;HTU21D;69198;44.694;37.790;2023-04-24T02:13:53;12.64;70.05
75190;HTU21D;69198;44.694;37.790;2023-04-24T02:14:55;12.63;70.15
75190;HTU21D;69198;44.694;37.790;2023-04-24T02:15:58;12.62;70.26
75190;HTU21D;69198;44.694;37.790;2023-04-24T02:16:59;12.61;70.34
75190;HTU21D;69198;44.694;37.790;2023-04-24T02:18:01;12.59;70.45
75190;HTU21D;69198;44.694;37.790;2023-04-24T02:19:03;12.60;70.42
75190;HTU21D;69198;44.694;37.790;2023-04-24T02:20:07;12.61;70.47
75190;HTU21D;69198;44.694;37.790;2023-04-24T02:21:08;12.61;70.55
75190;HTU21D;69198;44.694;37.790;2023-04-24T02:22:09;12.62;70.71
75190;HTU21D;69198;44.694;37.790;2023-04-24T02:23:11;12.66;70.74
75190;HTU21D;69198;44.694;37.790;2023-04-24T02:24:12;12.69;70.64
75190;HTU21D;69198;44.694;37.790;2023-04-24T02:25:13;12.71;70.61
75190;HTU21D;69198;44.694;37.790;2023-04-24T02:26:15;12.70;70.66
75190;HTU21D;69198;44.694;37.790;2023-04-24T02:27:18;12.70;70.73
75190;HTU21D;69198;44.694;37.790;2023-04-24T02:28:19;12.71;70.65
75190;HTU21D;69198;44.694;37.790;2023-04-24T02:29:20;12.72;70.69
75190;HTU21D;69198;44.694;37.790;2023-04-24T02:30:23;12.70;70.84
75190;HTU21D;69198;44.694;37.790;2023-04-24T02:31:24;12.72;70.87
75190;HTU21D;69198;44.694;37.790;2023-04-24T02:32:25;12.76;70.87
75190;HTU21D;69198;44.694;37.790;2023-04-24T02:33:26;12.76;70.90
75190;HTU21D;69198;44.694;37.790;2023-04-24T02:34:27;12.81;70.80
75190;HTU21D;69198;44.694;37.790;2023-04-24T02:35:28;12.80;70.75
75190;HTU21D;69198;44.694;37.790;2023-04-24T02:36:30;12.80;70.71
75190;HTU21D;69198;44.694;37.790;2023-04-24T02:37:32;12.80;70.79
75190;HTU21D;69198;44.694;37.790;2023-04-24T02:38:33;12.82;70.71
75190;HTU21D;69198;44.694;37.790;2023-04-24T02:39:34;12.85;70.75
75190;HTU21D;69198;44.694;37.790;2023-04-24T02:40:35;12.88;70.79
75190;HTU21D;69198;44.694;37.790;2023-04-24T02:41:37;12.95;70.57
75190;HTU21D;69198;44.694;37.790;2023-04-24T02:42:38;12.93;70.43
75190;HTU21D;69198;44.694;37.790;2023-04-24T02:43:39;12.93;70.38
75190;HTU21D;69198;44.694;37.790;2023-04-24T02:44:40;12.95;70.36
75190;HTU21D;69198;44.694;37.790;2023-04-24T02:45:41;12.99;70.39
75190;HTU21D;69198;44.694;37.790;2023-04-24T02:46:43;13.06;70.56
75190;HTU21D;69198;44.694;37.790;2023-04-24T02:47:44;13.08;70.79
75190;HTU21D;69198;44.694;37.790;2023-04-24T02:48:45;13.19;70.55
75190;HTU21D;69198;44.694;37.790;2023-04-24T02:49:46;13.22;70.29
75190;HTU21D;69198;44.694;37.790;2023-04-24T02:50:47;13.24;70.34
75190;HTU21D;69198;44.694;37.790;2023-04-24T02:51:48;13.25;70.51
75190;HTU21D;69198;44.694;37.790;2023-04-24T02:52:49;13.31;70.35
75190;HTU21D;69198;44.694;37.790;2023-04-24T02:53:50;13.32;70.32
75190;HTU21D;69198;44.694;37.790;2023-04-24T02:54:51;13.38;70.48
75190;HTU21D;69198;44.694;37.790;2023-04-24T02:55:54;13.46;70.42
75190;HTU21D;69198;44.694;37.790;2023-04-24T02:56:55;13.49;70.34
75190;HTU21D;69198;44.694;37.790;2023-04-24T02:57:57;13.47;70.26
75190;HTU21D;69198;44.694;37.790;2023-04-24T02:58:58;13.47;70.29
75190;HTU21D;69198;44.694;37.790;2023-04-24T02:59:59;13.48;70.58
75190;HTU21D;69198;44.694;37.790;2023-04-24T03:01:00;13.50;70.55
75190;HTU21D;69198;44.694;37.790;2023-04-24T03:02:01;13.48;70.37
75190;HTU21D;69198;44.694;37.790;2023-04-24T03:03:02;13.48;70.69
75190;HTU21D;69198;44.694;37.790;2023-04-24T03:04:03;13.47;70.58
75190;HTU21D;69198;44.694;37.790;2023-04-24T03:05:05;13.53;70.48
75190;HTU21D;69198;44.694;37.790;2023-04-24T03:06:06;13.55;70.48
75190;HTU21D;69198;44.694;37.790;2023-04-24T03:07:08;13.56;70.24
75190;HTU21D;69198;44.694;37.790;2023-04-24T03:08:11;13.55;70.19
75190;HTU21D;69198;44.694;37.790;2023-04-24T03:09:12;13.59;70.26
75190;HTU21D;69198;44.694;37.790;2023-04-24T03:10:13;13.59;70.23
75190;HTU21D;69198;44.694;37.790;2023-04-24T03:11:14;13.56;70.04
75190;HTU21D;69198;44.694;37.790;2023-04-24T03:12:16;13.53;69.90
75190;HTU21D;69198;44.694;37.790;2023-04-24T03:13:18;13.52;69.85
75190;HTU21D;69198;44.694;37.790;2023-04-24T03:14:19;13.47;69.94
75190;HTU21D;69198;44.694;37.790;2023-04-24T03:15:20;13.45;70.09
75190;HTU21D;69198;44.694;37.790;2023-04-24T03:16:21;13.41;70.20
75190;HTU21D;69198;44.694;37.790;2023-04-24T03:17:22;13.41;70.15
75190;HTU21D;69198;44.694;37.790;2023-04-24T03:18:23;13.43;70.09
75190;HTU21D;69198;44.694;37.790;2023-04-24T03:19:25;13.41;70.17
75190;HTU21D;69198;44.694;37.790;2023-04-24T03:20:38;13.44;70.08
75190;HTU21D;69198;44.694;37.790;2023-04-24T03:21:40;13.41;70.22
75190;HTU21D;69198;44.694;37.790;2023-04-24T03:22:42;13.40;70.20
75190;HTU21D;69198;44.694;37.790;2023-04-24T03:23:43;13.41;70.21
75190;HTU21D;69198;44.694;37.790;2023-04-24T03:24:44;13.43;70.14
75190;HTU21D;69198;44.694;37.790;2023-04-24T03:25:47;13.43;70.19
75190;HTU21D;69198;44.694;37.790;2023-04-24T03:26:50;13.41;70.22
75190;HTU21D;69198;44.694;37.790;2023-04-24T03:28:11;13.43;70.26
75190;HTU21D;69198;44.694;37.790;2023-04-24T03:29:16;13.44;70.26
75190;HTU21D;69198;44.694;37.790;2023-04-24T03:30:20;13.45;70.32
75190;HTU21D;69198;44.694;37.790;2023-04-24T03:31:27;13.48;70.32
75190;HTU21D;69198;44.694;37.790;2023-04-24T03:32:28;13.51;70.21
75190;HTU21D;69198;44.694;37.790;2023-04-24T03:33:29;13.54;70.23
75190;HTU21D;69198;44.694;37.790;2023-04-24T03:34:35;13.56;70.17
75190;HTU21D;69198;44.694;37.790;2023-04-24T03:35:36;13.62;69.97
75190;HTU21D;69198;44.694;37.790;2023-04-24T03:36:41;13.66;69.87
75190;HTU21D;69198;44.694;37.790;2023-04-24T03:37:43;13.67;69.94
75190;HTU21D;69198;44.694;37.790;2023-04-24T03:39:02;13.68;69.96
75190;HTU21D;69198;44.694;37.790;2023-04-24T03:40:08;13.71;69.92
75190;HTU21D;69198;44.694;37.790;2023-04-24T03:41:11;13.75;69.88
75190;HTU21D;69198;44.694;37.790;2023-04-24T03:42:20;13.77;69.80
75190;HTU21D;69198;44.694;37.790;2023-04-24T03:43:29;13.80;69.76
75190;HTU21D;69198;44.694;37.790;2023-04-24T03:44:35;13.86;69.51
75190;HTU21D;69198;44.694;37.790;2023-04-24T03:45:36;13.89;69.47
75190;HTU21D;69198;44.694;37.790;2023-04-24T03:46:37;13.92;69.45
75190;HTU21D;69198;44.694;37.790;2023-04-24T03:47:38;13.95;69.35
75190;HTU21D;69198;44.694;37.790;2023-04-24T03:48:40;13.98;69.31
75190;HTU21D;69198;44.694;37.790;2023-04-24T03:49:42;14.00;69.15
75190;HTU21D;69198;44.694;37.790;2023-04-24T03:50:44;14.00;69.05
75190;HTU21D;69198;44.694;37.790;2023-04-24T03:51:46;13.99;69.00
75190;HTU21D;69198;44.694;37.790;2023-04-24T03:53:05;13.98;68.97
75190;HTU21D;69198;44.694;37.790;2023-04-24T03:54:13;13.94;68.97
75190;HTU21D;69198;44.694;37.790;2023-04-24T03:55:14;13.94;68.90
75190;HTU21D;69198;44.694;37.790;2023-04-24T03:56:20;13.90;68.88
75190;HTU21D;69198;44.694;37.790;2023-04-24T03:57:21;13.86;68.94
75190;HTU21D;69198;44.694;37.790;2023-04-24T03:58:35;13.83;69.07
75190;HTU21D;69198;44.694;37.790;2023-04-24T03:59:36;13.83;69.07
75190;HTU21D;69198;44.694;37.790;2023-04-24T04:00:51;13.78;69.26
75190;HTU21D;69198;44.694;37.790;2023-04-24T04:02:15;13.71;69.53
75190;HTU21D;69198;44.694;37.790;2023-04-24T04:03:16;13.70;69.65
75190;HTU21D;69198;44.694;37.790;2023-04-24T04:04:17;13.71;69.63
75190;HTU21D;69198;44.694;37.790;2023-04-24T04:05:19;13.68;69.72
75190;HTU21D;69198;44.694;37.790;2023-04-24T04:06:20;13.66;69.90
75190;HTU21D;69198;44.694;37.790;2023-04-24T04:07:23;13.67;69.88
75190;HTU21D;69198;44.694;37.790;2023-04-24T04:08:24;13.67;69.80
75190;HTU21D;69198;44.694;37.790;2023-04-24T04:09:25;13.73;69.84
75190;HTU21D;69198;44.694;37.790;2023-04-24T04:10:26;13.70;70.01
75190;HTU21D;69198;44.694;37.790;2023-04-24T04:11:27;13.75;69.96
75190;HTU21D;69198;44.694;37.790;2023-04-24T04:12:28;13.78;69.86
75190;HTU21D;69198;44.694;37.790;2023-04-24T04:13:29;13.83;69.77
75190;HTU21D;69198;44.694;37.790;2023-04-24T04:14:30;13.90;69.55
75190;HTU21D;69198;44.694;37.790;2023-04-24T04:15:31;13.93;69.39
75190;HTU21D;69198;44.694;37.790;2023-04-24T04:16:33;13.94;69.23
75190;HTU21D;69198;44.694;37.790;2023-04-24T04:17:37;13.93;69.26
75190;HTU21D;69198;44.694;37.790;2023-04-24T04:18:40;13.92;69.28
75190;HTU21D;69198;44.694;37.790;2023-04-24T04:19:42;13.94;69.23
75190;HTU21D;69198;44.694;37.790;2023-04-24T04:20:43;13.93;69.31
75190;HTU21D;69198;44.694;37.790;2023-04-24T04:21:47;13.92;69.41
75190;HTU21D;69198;44.694;37.790;2023-04-24T04:23:05;13.93;69.45
75190;HTU21D;69198;44.694;37.790;2023-04-24T04:24:19;13.93;69.37
75190;HTU21D;69198;44.694;37.790;2023-04-24T04:25:26;13.96;69.22
75190;HTU21D;69198;44.694;37.790;2023-04-24T04:26:27;13.94;69.19
75190;HTU21D;69198;44.694;37.790;2023-04-24T04:27:37;13.92;69.28
75190;HTU21D;69198;44.694;37.790;2023-04-24T04:28:43;13.89;69.50
75190;HTU21D;69198;44.694;37.790;2023-04-24T04:29:46;13.92;69.56
75190;HTU21D;69198;44.694;37.790;2023-04-24T04:30:49;13.92;69.60
75190;HTU21D;69198;44.694;37.790;2023-04-24T04:31:50;13.95;69.61
75190;HTU21D;69198;44.694;37.790;2023-04-24T04:32:51;14.01;69.36
75190;HTU21D;69198;44.694;37.790;2023-04-24T04:33:52;14.03;69.29
75190;HTU21D;69198;44.694;37.790;2023-04-24T04:34:54;14.06;69.16
75190;HTU21D;69198;44.694;37.790;2023-04-24T04:35:57;14.06;69.24
75190;HTU21D;69198;44.694;37.790;2023-04-24T04:37:00;14.05;69.27
75190;HTU21D;69198;44.694;37.790;2023-04-24T04:38:30;14.06;69.35
75190;HTU21D;69198;44.694;37.790;2023-04-24T04:39:39;14.08;69.24
75190;HTU21D;69198;44.694;37.790;2023-04-24T04:40:44;14.10;69.06
75190;HTU21D;69198;44.694;37.790;2023-04-24T04:41:46;14.11;69.00
75190;HTU21D;69198;44.694;37.790;2023-04-24T04:42:50;14.13;68.89
75190;HTU21D;69198;44.694;37.790;2023-04-24T04:43:54;14.13;69.04
75190;HTU21D;69198;44.694;37.790;2023-04-24T04:44:56;14.14;69.08
75190;HTU21D;69198;44.694;37.790;2023-04-24T04:46:04;14.15;69.09
75190;HTU21D;69198;44.694;37.790;2023-04-24T04:47:44;14.17;69.03
75190;HTU21D;69198;44.694;37.790;2023-04-24T04:48:46;14.21;69.00
75190;HTU21D;69198;44.694;37.790;2023-04-24T04:49:47;14.21;69.00
75190;HTU21D;69198;44.694;37.790;2023-04-24T04:50:55;14.24;69.04
75190;HTU21D;69198;44.694;37.790;2023-04-24T04:51:57;14.25;68.89
75190;HTU21D;69198;44.694;37.790;2023-04-24T04:53:00;14.27;68.81
75190;HTU21D;69198;44.694;37.790;2023-04-24T04:54:06;14.29;68.81
75190;HTU21D;69198;44.694;37.790;2023-04-24T04:55:09;14.32;68.74
75190;HTU21D;69198;44.694;37.790;2023-04-24T04:56:33;14.35;68.49
75190;HTU21D;69198;44.694;37.790;2023-04-24T04:57:36;14.35;68.39
75190;HTU21D;69198;44.694;37.790;2023-04-24T04:58:38;14.35;68.46
75190;HTU21D;69198;44.694;37.790;2023-04-24T04:59:42;14.37;68.55
75190;HTU21D;69198;44.694;37.790;2023-04-24T05:00:49;14.40;68.46
75190;HTU21D;69198;44.694;37.790;2023-04-24T05:02:00;14.42;68.48
75190;HTU21D;69198;44.694;37.790;2023-04-24T05:03:01;14.44;68.27
75190;HTU21D;69198;44.694;37.790;2023-04-24T05:04:03;14.49;68.01
75190;HTU21D;69198;44.694;37.790;2023-04-24T05:05:06;14.47;68.10
75190;HTU21D;69198;44.694;37.790;2023-04-24T05:06:07;14.50;67.94
75190;HTU21D;69198;44.694;37.790;2023-04-24T05:07:11;14.51;68.05
75190;HTU21D;69198;44.694;37.790;2023-04-24T05:08:15;14.51;67.96
75190;HTU21D;69198;44.694;37.790;2023-04-24T05:09:16;14.54;67.97
75190;HTU21D;69198;44.694;37.790;2023-04-24T05:10:30;14.58;67.75
75190;HTU21D;69198;44.694;37.790;2023-04-24T05:11:31;14.59;67.53
75190;HTU21D;69198;44.694;37.790;2023-04-24T05:12:34;14.57;67.67
75190;HTU21D;69198;44.694;37.790;2023-04-24T05:13:37;14.57;67.64
75190;HTU21D;69198;44.694;37.790;2023-04-24T05:14:41;14.56;67.75
75190;HTU21D;69198;44.694;37.790;2023-04-24T05:15:43;14.59;67.75
75190;HTU21D;69198;44.694;37.790;2023-04-24T05:16:44;14.60;67.47
75190;HTU21D;69198;44.694;37.790;2023-04-24T05:17:46;14.56;67.50
75190;HTU21D;69198;44.694;37.790;2023-04-24T05:18:48;14.54;67.43
75190;HTU21D;69198;44.694;37.790;2023-04-24T05:19:52;14.53;67.51
75190;HTU21D;69198;44.694;37.790;2023-04-24T05:20:53;14.51;67.60
75190;HTU21D;69198;44.694;37.790;2023-04-24T05:21:55;14.51;67.71
75190;HTU21D;69198;44.694;37.790;2023-04-24T05:22:56;14.52;67.78
75190;HTU21D;69198;44.694;37.790;2023-04-24T05:23:59;14.53;67.84
75190;HTU21D;69198;44.694;37.790;2023-04-24T05:25:18;14.56;67.78
75190;HTU21D;69198;44.694;37.790;2023-04-24T05:26:33;14.57;67.53
75190;HTU21D;69198;44.694;37.790;2023-04-24T05:27:34;14.56;67.43
75190;HTU21D;69198;44.694;37.790;2023-04-24T05:28:39;14.51;67.56
75190;HTU21D;69198;44.694;37.790;2023-04-24T05:29:45;14.50;67.70
75190;HTU21D;69198;44.694;37.790;2023-04-24T05:30:47;14.49;67.81
75190;HTU21D;69198;44.694;37.790;2023-04-24T05:31:50;14.51;67.85
75190;HTU21D;69198;44.694;37.790;2023-04-24T05:32:51;14.52;67.64
75190;HTU21D;69198;44.694;37.790;2023-04-24T05:33:52;14.51;67.75
75190;HTU21D;69198;44.694;37.790;2023-04-24T05:34:53;14.50;67.71
75190;HTU21D;69198;44.694;37.790;2023-04-24T05:35:54;14.52;67.62
75190;HTU21D;69198;44.694;37.790;2023-04-24T05:36:55;14.52;67.72
75190;HTU21D;69198;44.694;37.790;2023-04-24T05:37:56;14.53;67.76
75190;HTU21D;69198;44.694;37.790;2023-04-24T05:38:57;14.57;67.78
75190;HTU21D;69198;44.694;37.790;2023-04-24T05:39:59;14.59;67.77
75190;HTU21D;69198;44.694;37.790;2023-04-24T05:41:01;14.65;67.67
75190;HTU21D;69198;44.694;37.790;2023-04-24T05:42:02;14.66;67.45
75190;HTU21D;69198;44.694;37.790;2023-04-24T05:43:05;14.65;67.48
75190;HTU21D;69198;44.694;37.790;2023-04-24T05:44:06;14.62;67.72
75190;HTU21D;69198;44.694;37.790;2023-04-24T05:45:07;14.60;67.81
75190;HTU21D;69198;44.694;37.790;2023-04-24T05:46:11;14.62;67.81
75190;HTU21D;69198;44.694;37.790;2023-04-24T05:47:13;14.60;67.82
75190;HTU21D;69198;44.694;37.790;2023-04-24T05:48:14;14.64;67.76
75190;HTU21D;69198;44.694;37.790;2023-04-24T05:49:16;14.66;67.67
75190;HTU21D;69198;44.694;37.790;2023-04-24T05:50:17;14.66;67.59
75190;HTU21D;69198;44.694;37.790;2023-04-24T05:51:18;14.65;67.63
75190;HTU21D;69198;44.694;37.790;2023-04-24T05:52:19;14.64;67.75
75190;HTU21D;69198;44.694;37.790;2023-04-24T05:53:22;14.63;67.76
75190;HTU21D;69198;44.694;37.790;2023-04-24T05:54:23;14.63;67.69
75190;HTU21D;69198;44.694;37.790;2023-04-24T05:55:25;14.58;67.81
75190;HTU21D;69198;44.694;37.790;2023-04-24T05:56:27;14.56;67.79
75190;HTU21D;69198;44.694;37.790;2023-04-24T05:57:29;14.52;68.00
75190;HTU21D;69198;44.694;37.790;2023-04-24T05:58:37;14.50;68.11
75190;HTU21D;69198;44.694;37.790;2023-04-24T05:59:40;14.49;68.22
75190;HTU21D;69198;44.694;37.790;2023-04-24T06:00:41;14.48;68.23
75190;HTU21D;69198;44.694;37.790;2023-04-24T06:01:44;14.44;68.30
75190;HTU21D;69198;44.694;37.790;2023-04-24T06:02:50;14.43;68.44
75190;HTU21D;69198;44.694;37.790;2023-04-24T06:03:52;14.45;68.47
75190;HTU21D;69198;44.694;37.790;2023-04-24T06:04:53;14.45;68.55
75190;HTU21D;69198;44.694;37.790;2023-04-24T06:05:55;14.43;68.40
75190;HTU21D;69198;44.694;37.790;2023-04-24T06:06:57;14.41;68.13
75190;HTU21D;69198;44.694;37.790;2023-04-24T06:07:58;14.38;68.28
75190;HTU21D;69198;44.694;37.790;2023-04-24T06:09:04;14.33;68.61
75190;HTU21D;69198;44.694;37.790;2023-04-24T06:10:06;14.27;68.91
75190;HTU21D;69198;44.694;37.790;2023-04-24T06:11:13;14.22;68.97
75190;HTU21D;69198;44.694;37.790;2023-04-24T06:12:15;14.17;69.18
75190;HTU21D;69198;44.694;37.790;2023-04-24T06:13:27;14.09;69.52
75190;HTU21D;69198;44.694;37.790;2023-04-24T06:15:01;14.01;69.74
75190;HTU21D;69198;44.694;37.790;2023-04-24T06:16:20;13.94;70.21
75190;HTU21D;69198;44.694;37.790;2023-04-24T06:17:28;13.89;70.39
75190;HTU21D;69198;44.694;37.790;2023-04-24T06:18:29;13.83;70.78
75190;HTU21D;69198;44.694;37.790;2023-04-24T06:19:31;13.82;71.06
75190;HTU21D;69198;44.694;37.790;2023-04-24T06:20:32;13.80;71.30
75190;HTU21D;69198;44.694;37.790;2023-04-24T06:21:33;13.76;71.37
75190;HTU21D;69198;44.694;37.790;2023-04-24T06:22:34;13.75;71.55
75190;HTU21D;69198;44.694;37.790;2023-04-24T06:23:35;13.74;71.71
75190;HTU21D;69198;44.694;37.790;2023-04-24T06:24:37;13.74;71.89
75190;HTU21D;69198;44.694;37.790;2023-04-24T06:25:38;13.74;71.95